• Join FlightAware (Why Join?)
  • Login
  • US Flag 
05:05AM EDT


 

Airport Tracker/Info


-or-


 

Live Flight TrackerFlight Track Log ✈ AWE1940 ✈ 05-May-2013 ✈ KIAH - KCLT

Flight Track Log - Related Links

Times and Time Zones

All times are in EDT time to prevent confusion due to time zone crossing. See the AWE1940 flight status page for this flight to view local times or setup timezone preferences in your user account.

Time Position Orientation Groundspeed Altitude Reporting Facility
EDT Latitude Longitude Course Direction KTS MPH feet Rate Location/Type
06:39PM 29.9281 -95.2511 101° East 248 285 3,100  Level Houston Center
06:40PM 29.8931 -95.2222 144° Southeast 240 276 3,900 1,320 Climbing Houston Center
06:40PM 29.8647 -95.2033 150° Southeast 285 328 4,500 1,920 Climbing Houston Center
06:41PM 29.9245 -94.9134 101° East  Level FlightAware Approximate
06:41PM 29.8264 -95.1708 144° Southeast 273 314 5,900  Level Houston Center
06:41PM 29.8056 -95.1311 121° Southeast 306 352 7,300 3,000 Climbing Houston Center
06:42PM 29.9088 -94.7724 95° East  Level FlightAware Approximate
06:42PM 29.8108 -95.0792 83° East 304 350 9,000  Level Houston Center
06:43PM 29.8941 -94.6312 101° East  Level FlightAware Approximate
06:43PM 29.8256 -94.9586 82° East 315 362 11,200  Level Houston Center
06:44PM 29.8709 -94.4919 101° East  Level FlightAware Approximate
06:44PM 29.8336 -94.8369 86° East 359 413 13,500  Level Houston Center
06:45PM 29.8400 -94.7122 87° East 377 434 15,800 2,040 Climbing Houston Center
06:46PM 29.8489 -94.5808 86° East 394 453 17,800 1,980 Climbing Houston Center
06:47PM 29.8569 -94.4453 86° East 415 478 19,900 1,740 Climbing Houston Center
06:48PM 29.8631 -94.3058 87° East 430 495 21,400 1,680 Climbing Houston Center
06:49PM 29.8575 -94.1336 92° East 449 517 23,400 1,620 Climbing Houston Center
06:50PM 29.8608 -93.9867 88° East 459 528 24,800 1,260 Climbing Houston Center
06:51PM 29.8894 -93.8397 77° East 471 542 26,100 1,200 Climbing Houston Center
06:52PM 29.9150 -93.6914 79° East 474 545 27,300 1,200 Climbing Houston Center
06:53PM 29.9400 -93.5389 79° East 484 557 28,700 1,320 Climbing Houston Center
06:54PM 29.9711 -93.3569 79° East 488 562 30,100 1,080 Climbing Houston Center
06:55PM 29.9964 -93.2033 79° East 493 567 31,000 420 Climbing Houston Center
06:56PM 30.0217 -93.0519 79° East 487 560 31,000  Level Houston Center
06:57PM 30.0475 -92.9011 79° East 482 555 31,000  Level Houston Center
06:58PM 30.0778 -92.7172 79° East 487 560 31,000  Level Houston Center
06:59PM 30.1047 -92.5636 79° East 489 563 31,000  Level Houston Center
07:00PM 30.1294 -92.4106 79° East 488 562 31,000  Level Houston Center
07:02PM 30.1539 -92.2567 80° East 489 563 31,000  Level Houston Center
07:03PM 30.1792 -92.1028 79° East 489 563 31,000  Level Houston Center
07:04PM 30.2078 -91.9253 79° East 490 564 31,000  Level Houston Center
07:05PM 30.2333 -91.7717 79° East 490 564 31,000  Level Houston Center
07:06PM 30.2553 -91.6272 80° East 487 560 31,000  Level Houston Center
07:07PM 30.2797 -91.4733 80° East 487 560 31,000  Level Houston Center
07:08PM 30.3097 -91.2867 79° East 492 566 31,000  Level Houston Center
07:09PM 30.3333 -91.1328 80° East 489 563 31,000  Level Houston Center
07:10PM 30.3578 -90.9769 80° East 493 567 31,000  Level Houston Center
07:11PM 30.3814 -90.8189 80° East 497 572 31,000  Level Houston Center
07:12PM 30.4053 -90.6606 80° East 501 577 31,000  Level Houston Center
07:13PM 30.4292 -90.5017 80° East 501 577 31,000  Level Houston Center
07:14PM 30.4572 -90.3094 80° East 505 581 31,000  Level Houston Center
07:15PM 30.4794 -90.1492 81° East 503 579 31,000  Level Houston Center
07:16PM 30.5036 -89.9878 80° East 504 580 31,000  Level Houston Center
07:17PM 30.5269 -89.8242 81° East 505 581 31,000  Level Houston Center
07:18PM 30.5503 -89.6608 81° East 504 580 31,000  Level Houston Center
07:19PM 30.5728 -89.4981 81° East 506 582 31,000  Level Houston Center
07:20PM 30.5958 -89.3353 81° East 510 587 31,000  Level Houston Center
07:21PM 30.6172 -89.1722 81° East 513 590 31,000  Level Houston Center
07:22PM 30.6397 -89.0089 81° East 514 592 31,000  Level Houston Center
07:23PM 30.6636 -88.8117 82° East 515 593 31,000  Level Houston Center
07:24PM 30.6875 -88.6486 80° East 515 593 31,000  Level Houston Center
07:25PM 30.7092 -88.4831 81° East 517 595 31,000  Level Houston Center
07:26PM 30.7317 -88.3172 81° East 519 597 31,000  Level Houston Center
07:27PM 30.7500 -88.1511 83° East 520 598 31,000  Level Houston Center
07:28PM 30.7728 -87.9853 81° East 520 598 31,000  Level Houston Center
07:29PM 30.7964 -87.7942 82° East 528 608 31,000  Level Jacksonville Center
07:30PM 30.8153 -87.6236 83° East 528 608 31,000  Level Jacksonville Center
07:31PM 30.8381 -87.4578 81° East 523 602 31,000  Level Jacksonville Center
07:32PM 30.8567 -87.2894 83° East 523 602 31,000  Level Jacksonville Center
07:33PM 30.8769 -87.1208 82° East 518 596 31,000  Level Jacksonville Center
07:34PM 30.8969 -86.9522 82° East 518 596 31,000  Level Jacksonville Center
07:35PM 30.9167 -86.7861 82° East 518 596 31,000  Level Jacksonville Center
07:36PM 30.9325 -86.6125 84° East 518 596 31,000  Level Jacksonville Center
07:37PM 30.9519 -86.4461 82° East 518 596 31,000  Level Jacksonville Center
07:38PM 30.9686 -86.2942 83° East 518 596 31,000  Level Jacksonville Center
07:39PM 30.9853 -86.1300 83° East 518 596 31,000  Level Jacksonville Center
07:40PM 31.0061 -85.9611 82° East 518 596 31,000  Level Jacksonville Center
07:41PM 31.0331 -85.7922 79° East 523 602 31,000  Level Jacksonville Center
07:42PM 31.0597 -85.6306 79° East 523 602 31,000  Level Jacksonville Center
07:43PM 31.0903 -85.4617 78° East 524 603 31,000  Level Jacksonville Center
07:44PM 31.1600 -85.3178 60° Northeast 516 594 31,000  Level Jacksonville Center
07:45PM 31.2644 -85.1967 45° Northeast 502 578 31,000  Level Jacksonville Center
07:47PM 31.4825 -84.9375 45° Northeast 514 592 31,000  Level Atlanta Center
07:48PM 31.5878 -84.8142 45° Northeast 514 592 31,000  Level Atlanta Center
07:49PM 31.6886 -84.6931 46° Northeast 514 592 31,000  Level Atlanta Center
07:50PM 31.7894 -84.5714 46° Northeast 514 592 31,000  Level Atlanta Center
07:51PM 31.8919 -84.4475 46° Northeast 514 592 31,000  Level Atlanta Center
07:52PM 31.9906 -84.3253 46° Northeast 519 597 31,000  Level Atlanta Center
07:53PM 32.0931 -84.2031 45° Northeast 519 597 31,000  Level Atlanta Center
07:54PM 32.1911 -84.0806 47° Northeast 514 592 31,000  Level Atlanta Center
07:55PM 32.2914 -83.9553 47° Northeast 509 586 31,000  Level Atlanta Center
07:56PM 32.3894 -83.8372 45° Northeast 503 579 31,000  Level Atlanta Center
07:57PM 32.4892 -83.7139 46° Northeast 503 579 31,000  Level Atlanta Center
07:58PM 32.5869 -83.5903 47° Northeast 503 579 31,000  Level Atlanta Center
07:59PM 32.6742 -83.4861 45° Northeast 497 572 31,000  Level Atlanta Center
08:00PM 32.7697 -83.3644 47° Northeast 497 572 31,000  Level Atlanta Center
08:01PM 32.8711 -83.2325 48° Northeast 497 572 31,000  Level Atlanta Center
08:02PM 32.9661 -83.1103 47° Northeast 497 572 31,000  Level Atlanta Center
08:03PM 33.0592 -82.9928 47° Northeast 497 572 31,000 -60 Level Atlanta Center
08:04PM 33.1542 -82.8750 46° Northeast 497 572 30,900 -540 Descending Atlanta Center
08:05PM 33.2447 -82.7572 47° Northeast 492 566 30,000 -960 Descending Atlanta Center
08:06PM 33.3417 -82.6364 46° Northeast 492 566 29,000 -960 Descending Atlanta Center
08:07PM 33.4403 -82.5153 46° Northeast 499 574 28,100 -960 Descending Atlanta Center
08:08PM 33.5306 -82.3967 48° Northeast 487 560 27,100 -900 Descending Atlanta Center
08:09PM 33.6086 -82.3003 46° Northeast 477 549 26,300 -960 Descending Atlanta Center
08:10PM 33.7050 -82.1761 47° Northeast 472 543 25,200 -1,020 Descending Atlanta Center
08:11PM 33.8383 -82.1581 North 451 519 24,300 -600 Descending Atlanta Center
08:12PM 33.9886 -82.1597 359° North 468 539 24,000 -180 Descending Atlanta Center
08:13PM 34.1242 -82.1567 North 474 545 24,000 -300 Level Atlanta Center
08:14PM 34.2533 -82.1389 North 474 545 23,400 -1,500 Descending Atlanta Center
08:15PM 34.3497 -82.0311 43° Northeast 441 507 21,100 -2,520 Descending Atlanta Center
08:16PM 34.4375 -81.9181 47° Northeast 446 513 18,400 -2,700 Descending Atlanta Center
08:17PM 34.5233 -81.8075 47° Northeast 446 513 15,700 -2,580 Descending Atlanta Center
08:19PM 34.6108 -81.6992 46° Northeast 419 482 13,100 -2,400 Descending Atlanta Center
08:19PM 34.6558 -81.6397 47° Northeast 393 452 11,700 -1,860 Descending Atlanta Center
08:19PM 34.6781 -81.6139 44° Northeast 400 460 11,400 -600 Descending Atlanta Center
08:20PM 34.7250 -81.5544 46° Northeast 333 383 11,100 -420 Descending Atlanta Center
08:20PM 34.7433 -81.5311 46° Northeast 356 410 11,000 -120 Descending Atlanta Center
08:21PM 34.7900 -81.4692 47° Northeast 309 356 11,000 -420 Level Atlanta Center
08:22PM 34.8386 -81.4044 48° Northeast 285 328 10,300 -1,200 Descending Atlanta Center
08:22PM 34.8444 -81.3789 74° East 287 330 9,600 -1,740 Descending Atlanta Center
08:23PM 34.8344 -81.3083 100° East 231 266 8,400 -1,320 Descending Atlanta Center
08:24PM 34.8367 -81.2197 88° East 231 266 7,000 -720 Descending Atlanta Center
08:25PM 34.8394 -81.1589 87° East 223 257 7,100 -840 Climbing Atlanta Center
08:26PM 34.8433 -81.0650 87° East 226 260 5,400 -960 Descending Atlanta Center
08:27PM 34.8775 -81.0056 55° Northeast 213 245 5,000 -240 Descending Atlanta Center
08:28PM 34.9306 -80.9556 38° Northeast 228 262 5,000 -60 Level Atlanta Center
08:29PM 34.9928 -80.9481 North 250 288 4,900 -780 Descending Atlanta Center
08:30PM 35.0600 -80.9558 355° North 238 274 3,500 -1,260 Descending Atlanta Center
08:32PM 35.1225 -80.9611 356° North 193 222 2,300 -960 Descending Atlanta Center
08:32PM 35.1622 -80.9647 356° North 143 165 1,600 -780 Descending Atlanta Center